Terminal Aerodrome Forecast
Issued by NWS Chicago, IL

Home | Current Version | Previous Version | Text Only | Print | Product List | Glossary On
Versions: 1 2 3 4 5 6 7 8 9 10 11 12 13 14 15 16 17 18 19 20 21 22 23 24 25 26 27 28 29 30 31 32 33 34 35 36
000
FTUS43 KLOT 010500
TAFRFD
TAF
KRFD 010539Z 0106/0206 09006KT P6SM OVC015
     FM011200 11007KT P6SM SCT015
     FM011500 13010KT P6SM FEW025 SCT250
     FM020100 15008KT P6SM SCT150 BKN250
     FM020400 15007KT P6SM VCSH SCT050 BKN120=

USA.gov is the U.S. government's official web portal to all federal, state and local government web resources and services.